Time;durP1;ratioP1;P1;durP2;ratioP2;P2;SDS_P1;SDS_P2;PMS_P1;PMS_P2;Temp;Humidity;BMP_temperature;BMP_pressure;BME280_temperature;BME280_humidity;BME280_pressure;Samples;Min_cycle;Max_cycle;Signal;HPM_P1;HPM_P2
2022/04/30 00:01:57;;;;;;;;;;;21.50;38.40;;;;;;5071767;28;19915;-62
2022/04/30 00:04:22;;;;;;;;;;;21.50;38.40;;;;;;5071538;28;20273;-62
2022/04/30 00:06:48;;;;;;;;;;;21.50;38.30;;;;;;5071853;28;20061;-62
2022/04/30 00:09:13;;;;;;;;;;;21.50;38.30;;;;;;5069831;28;19912;-62
2022/04/30 00:11:39;;;;;;;;;;;21.50;38.30;;;;;;5071650;28;19917;-62
2022/04/30 00:14:04;;;;;;;;;;;21.50;38.30;;;;;;5066393;28;19908;-62
2022/04/30 00:16:29;;;;;;;;;;;21.40;38.30;;;;;;5051634;28;20012;-62
2022/04/30 00:18:56;;;;;;;;;;;21.40;38.40;;;;;;5051638;28;19908;-61
2022/04/30 00:21:21;;;;;;;;;;;21.40;38.40;;;;;;5051983;28;19913;-62
2022/04/30 00:23:47;;;;;;;;;;;21.40;38.40;;;;;;5055563;28;19924;-62
2022/04/30 00:26:12;;;;;;;;;;;21.40;38.40;;;;;;5055305;28;19916;-63
2022/04/30 00:28:38;;;;;;;;;;;21.40;38.40;;;;;;5053913;28;19909;-62
2022/04/30 00:31:03;;;;;;;;;;;21.40;38.40;;;;;;5055304;28;19917;-62
2022/04/30 00:33:29;;;;;;;;;;;21.40;38.40;;;;;;5055542;28;19912;-62
2022/04/30 00:35:54;;;;;;;;;;;21.40;38.40;;;;;;5053757;28;20012;-61
2022/04/30 00:38:19;;;;;;;;;;;21.30;38.40;;;;;;5061597;28;20331;-61
2022/04/30 00:40:45;;;;;;;;;;;21.30;38.40;;;;;;5074619;28;20327;-62
2022/04/30 00:43:10;;;;;;;;;;;21.30;38.50;;;;;;5075020;28;20333;-61
2022/04/30 00:45:36;;;;;;;;;;;21.30;38.50;;;;;;5068077;28;19932;-61
2022/04/30 00:48:02;;;;;;;;;;;21.30;38.50;;;;;;5055118;28;19913;-62
2022/04/30 00:50:29;;;;;;;;;;;21.30;38.60;;;;;;5054969;28;19956;-62
2022/04/30 00:52:55;;;;;;;;;;;21.30;38.60;;;;;;5055034;28;19960;-62
2022/04/30 00:55:22;;;;;;;;;;;21.20;38.60;;;;;;5054559;28;19948;-62
2022/04/30 00:57:48;;;;;;;;;;;21.20;38.60;;;;;;5070365;28;19999;-62
2022/04/30 01:00:14;;;;;;;;;;;21.20;38.60;;;;;;5053051;28;19917;-62
2022/04/30 01:02:39;;;;;;;;;;;21.20;38.60;;;;;;5054773;28;19932;-62
2022/04/30 01:05:05;;;;;;;;;;;21.20;38.60;;;;;;5054692;28;19909;-62
2022/04/30 01:07:31;;;;;;;;;;;21.10;38.50;;;;;;5070297;28;19916;-62
2022/04/30 01:09:56;;;;;;;;;;;21.10;38.50;;;;;;5074087;28;20311;-62
2022/04/30 01:12:22;;;;;;;;;;;21.10;38.60;;;;;;5074589;28;19915;-61
2022/04/30 01:14:48;;;;;;;;;;;21.10;38.70;;;;;;5073013;28;19909;-61
2022/04/30 01:17:14;;;;;;;;;;;21.10;38.70;;;;;;5074575;28;19916;-62
2022/04/30 01:19:40;;;;;;;;;;;21.10;38.70;;;;;;5074419;28;19999;-62
2022/04/30 01:22:09;;;;;;;;;;;21.10;38.70;;;;;;5073289;28;19908;-62
2022/04/30 01:24:35;;;;;;;;;;;21.10;38.70;;;;;;5072565;28;19935;-62
2022/04/30 01:27:00;;;;;;;;;;;21.00;38.70;;;;;;5073202;28;19909;-62
2022/04/30 01:29:27;;;;;;;;;;;21.00;38.70;;;;;;5073967;28;19908;-62
2022/04/30 01:37:25;;;;;;;;;;;21.10;38.70;;;;;;5054202;28;19955;-61
2022/04/30 01:39:52;;;;;;;;;;;21.00;38.60;;;;;;5071513;28;19908;-62
2022/04/30 01:42:18;;;;;;;;;;;21.10;38.70;;;;;;5072659;28;20349;-62
2022/04/30 01:44:46;;;;;;;;;;;21.10;38.70;;;;;;5072115;28;19928;-62
2022/04/30 01:47:12;;;;;;;;;;;21.00;38.70;;;;;;5074001;28;19908;-62
2022/04/30 01:49:38;;;;;;;;;;;21.00;38.70;;;;;;5073789;28;19962;-61
2022/04/30 01:52:09;;;;;;;;;;;21.10;38.70;;;;;;5073928;28;20344;-61
2022/04/30 01:54:35;;;;;;;;;;;21.10;38.60;;;;;;5073348;28;20388;-62
2022/04/30 01:57:01;;;;;;;;;;;21.00;38.60;;;;;;5073853;28;19909;-62
2022/04/30 01:59:26;;;;;;;;;;;21.00;38.70;;;;;;5071862;28;19962;-62
2022/04/30 02:01:51;;;;;;;;;;;21.00;38.70;;;;;;5073734;28;20436;-62
2022/04/30 02:04:17;;;;;;;;;;;21.00;38.60;;;;;;5072144;28;20257;-62
2022/04/30 02:06:43;;;;;;;;;;;21.00;38.70;;;;;;5073671;28;19908;-62
2022/04/30 02:09:09;;;;;;;;;;;21.00;38.70;;;;;;5071900;28;20370;-62
2022/04/30 02:11:35;;;;;;;;;;;21.00;38.70;;;;;;5072273;28;20342;-62
2022/04/30 02:14:00;;;;;;;;;;;21.10;39.00;;;;;;5068766;28;19948;-61
2022/04/30 02:16:26;;;;;;;;;;;21.10;38.60;;;;;;5053291;28;19916;-62
2022/04/30 02:18:51;;;;;;;;;;;21.10;38.50;;;;;;5053257;28;19987;-61
2022/04/30 02:21:20;;;;;;;;;;;21.10;38.50;;;;;;5053175;28;19920;-62
2022/04/30 02:23:46;;;;;;;;;;;21.10;38.50;;;;;;5053498;28;20008;-61
2022/04/30 02:26:11;;;;;;;;;;;21.00;38.50;;;;;;5051603;28;20349;-62
2022/04/30 02:28:36;;;;;;;;;;;21.10;38.50;;;;;;5052875;28;19908;-61
2022/04/30 02:31:02;;;;;;;;;;;21.10;38.50;;;;;;5053150;28;19913;-62
2022/04/30 02:33:27;;;;;;;;;;;21.10;38.50;;;;;;5053133;28;19999;-62
2022/04/30 02:35:53;;;;;;;;;;;21.10;38.50;;;;;;5052915;28;19917;-62
2022/04/30 02:38:19;;;;;;;;;;;21.10;38.50;;;;;;5059112;28;20380;-62
2022/04/30 02:40:45;;;;;;;;;;;21.00;38.40;;;;;;5072509;28;19912;-62
2022/04/30 02:43:11;;;;;;;;;;;21.00;38.60;;;;;;5071656;28;20288;-62
2022/04/30 02:45:37;;;;;;;;;;;21.00;38.60;;;;;;5064489;28;20388;-62
2022/04/30 02:48:03;;;;;;;;;;;21.00;38.60;;;;;;5051586;28;19932;-62
2022/04/30 02:50:28;;;;;;;;;;;21.00;38.50;;;;;;5052512;28;19913;-62
2022/04/30 02:52:56;;;;;;;;;;;21.00;38.60;;;;;;5052764;28;19916;-61
2022/04/30 02:55:22;;;;;;;;;;;21.00;38.60;;;;;;5052184;28;19913;-61
2022/04/30 03:00:41;;;;;;;;;;;21.00;38.50;;;;;;5052061;28;20054;-62
2022/04/30 03:03:08;;;;;;;;;;;21.00;38.50;;;;;;5052516;28;19909;-61
2022/04/30 03:05:34;;;;;;;;;;;21.00;38.60;;;;;;5052645;28;20361;-62
2022/04/30 03:08:00;;;;;;;;;;;21.00;38.60;;;;;;5056005;28;19927;-62
2022/04/30 03:10:26;;;;;;;;;;;21.00;38.60;;;;;;5072195;28;19919;-61
2022/04/30 03:12:51;;;;;;;;;;;20.90;38.50;;;;;;5072439;28;19995;-61
2022/04/30 03:15:22;;;;;;;;;;;20.90;38.60;;;;;;5071826;28;19924;-62
2022/04/30 03:23:16;;;;;;;;;;;20.90;38.70;;;;;;5072181;28;20058;-62
2022/04/30 03:25:41;;;;;;;;;;;20.90;38.60;;;;;;5071782;28;20382;-62
2022/04/30 03:28:07;;;;;;;;;;;20.90;38.60;;;;;;5072241;28;19909;-61
2022/04/30 03:30:32;;;;;;;;;;;20.90;38.60;;;;;;5071556;28;19919;-62
2022/04/30 03:32:58;;;;;;;;;;;20.90;38.60;;;;;;5072077;28;19909;-62
2022/04/30 03:35:23;;;;;;;;;;;20.90;39.30;;;;;;5060714;28;19917;-62
2022/04/30 03:37:49;;;;;;;;;;;20.90;38.70;;;;;;5054139;28;19952;-62
2022/04/30 03:40:14;;;;;;;;;;;20.90;38.70;;;;;;5071544;28;19915;-62
2022/04/30 03:42:40;;;;;;;;;;;20.90;38.60;;;;;;5072035;28;19987;-61
2022/04/30 03:45:05;;;;;;;;;;;20.90;38.60;;;;;;5071293;28;19921;-62
2022/04/30 03:47:31;;;;;;;;;;;20.90;38.60;;;;;;5071877;28;19924;-61
2022/04/30 03:49:59;;;;;;;;;;;20.80;38.60;;;;;;5070853;28;20460;-61
2022/04/30 03:52:24;;;;;;;;;;;20.80;38.60;;;;;;5071894;28;19927;-62
2022/04/30 03:54:50;;;;;;;;;;;20.80;38.70;;;;;;5071588;28;19909;-61
2022/04/30 03:57:15;;;;;;;;;;;20.80;38.70;;;;;;5075641;28;19912;-61
2022/04/30 03:59:40;;;;;;;;;;;20.80;38.70;;;;;;5077909;28;19916;-62
2022/04/30 04:02:06;;;;;;;;;;;20.80;38.70;;;;;;5078540;28;19915;-62
2022/04/30 04:04:31;;;;;;;;;;;20.80;38.70;;;;;;5078492;28;20368;-62
2022/04/30 04:06:57;;;;;;;;;;;20.80;38.80;;;;;;5078397;28;19958;-61
2022/04/30 04:09:22;;;;;;;;;;;20.70;38.80;;;;;;5077755;28;20382;-62
2022/04/30 04:11:48;;;;;;;;;;;20.70;38.70;;;;;;5078289;28;20047;-62
2022/04/30 04:19:42;;;;;;;;;;;20.70;38.80;;;;;;5058072;28;20383;-62
2022/04/30 04:22:07;;;;;;;;;;;20.70;38.80;;;;;;5058277;28;20011;-62
2022/04/30 04:27:17;;;;;;;;;;;20.70;38.80;;;;;;5058200;28;19916;-62
2022/04/30 04:29:43;;;;;;;;;;;20.70;38.90;;;;;;5057653;28;20258;-61
2022/04/30 04:32:09;;;;;;;;;;;20.60;38.80;;;;;;5058086;28;20011;-62
2022/04/30 04:34:34;;;;;;;;;;;20.60;38.80;;;;;;5057836;28;19982;-62
2022/04/30 04:37:00;;;;;;;;;;;20.60;38.80;;;;;;5058244;28;19908;-62
2022/04/30 04:39:25;;;;;;;;;;;20.60;38.90;;;;;;5073134;28;19916;-62
2022/04/30 04:41:51;;;;;;;;;;;20.60;38.90;;;;;;5078149;28;20018;-62
2022/04/30 04:44:16;;;;;;;;;;;20.60;38.90;;;;;;5077366;28;19932;-62
2022/04/30 04:46:42;;;;;;;;;;;20.60;38.90;;;;;;5078184;28;19931;-62
2022/04/30 04:49:10;;;;;;;;;;;20.60;39.00;;;;;;5078119;28;19908;-61
2022/04/30 04:51:36;;;;;;;;;;;20.50;39.00;;;;;;5078229;28;19956;-62
2022/04/30 04:54:01;;;;;;;;;;;20.50;39.00;;;;;;5077918;28;19912;-62
2022/04/30 04:56:27;;;;;;;;;;;20.50;39.00;;;;;;5076233;28;20320;-61
2022/04/30 04:58:52;;;;;;;;;;;20.60;39.00;;;;;;5077550;28;19913;-61
2022/04/30 05:01:20;;;;;;;;;;;20.60;39.00;;;;;;5077095;28;21471;-62
2022/04/30 05:03:45;;;;;;;;;;;20.60;39.00;;;;;;5077757;28;20007;-62
2022/04/30 05:06:10;;;;;;;;;;;20.60;39.00;;;;;;5078150;28;19916;-62
2022/04/30 05:08:36;;;;;;;;;;;20.50;38.90;;;;;;5074718;28;19909;-62
2022/04/30 05:11:01;;;;;;;;;;;20.50;38.90;;;;;;5074359;28;19999;-62
2022/04/30 05:13:27;;;;;;;;;;;20.50;38.90;;;;;;5073364;28;19909;-61
2022/04/30 05:15:52;;;;;;;;;;;20.60;39.00;;;;;;5074223;28;19909;-61
2022/04/30 05:18:18;;;;;;;;;;;20.60;39.00;;;;;;5073199;28;19908;-62
2022/04/30 05:20:43;;;;;;;;;;;20.50;39.00;;;;;;5074404;28;19920;-61
2022/04/30 05:23:09;;;;;;;;;;;20.50;39.00;;;;;;5074507;28;19912;-62
2022/04/30 05:25:36;;;;;;;;;;;20.50;38.90;;;;;;5073959;28;19962;-61
2022/04/30 05:28:01;;;;;;;;;;;20.50;38.90;;;;;;5074383;28;19920;-61
2022/04/30 05:30:27;;;;;;;;;;;20.60;39.00;;;;;;5073714;28;19912;-62
2022/04/30 05:32:52;;;;;;;;;;;20.50;38.80;;;;;;5074575;28;20000;-61
2022/04/30 05:35:18;;;;;;;;;;;20.60;39.00;;;;;;5063787;28;19916;-62
2022/04/30 05:37:43;;;;;;;;;;;20.50;38.90;;;;;;5054533;28;19919;-62
2022/04/30 05:40:09;;;;;;;;;;;20.50;38.90;;;;;;5073722;28;19912;-62
2022/04/30 05:42:34;;;;;;;;;;;20.50;39.00;;;;;;5074450;28;19908;-62
2022/04/30 05:45:00;;;;;;;;;;;20.50;39.00;;;;;;5073394;28;19920;-62
2022/04/30 05:47:25;;;;;;;;;;;20.50;38.90;;;;;;5073970;28;19920;-62
2022/04/30 05:49:51;;;;;;;;;;;20.40;39.00;;;;;;5073891;28;19986;-62
2022/04/30 05:52:19;;;;;;;;;;;20.50;39.00;;;;;;5073969;28;19912;-62
2022/04/30 05:54:44;;;;;;;;;;;20.40;39.00;;;;;;5073437;28;20399;-62
2022/04/30 05:57:09;;;;;;;;;;;20.50;39.10;;;;;;5073909;28;19947;-62
2022/04/30 05:59:35;;;;;;;;;;;20.40;39.00;;;;;;5073287;28;19912;-61
2022/04/30 06:02:00;;;;;;;;;;;20.40;39.00;;;;;;5073796;28;20309;-62
2022/04/30 06:04:26;;;;;;;;;;;20.40;39.00;;;;;;5073450;28;20407;-61
2022/04/30 06:06:51;;;;;;;;;;;20.40;39.00;;;;;;5073742;28;19931;-62
2022/04/30 06:09:19;;;;;;;;;;;20.40;39.10;;;;;;5073044;28;19908;-61
2022/04/30 06:11:44;;;;;;;;;;;20.40;39.20;;;;;;5073784;28;19928;-61
2022/04/30 06:14:10;;;;;;;;;;;20.40;39.20;;;;;;5067483;28;19909;-62
2022/04/30 06:16:35;;;;;;;;;;;20.40;39.00;;;;;;5053341;28;19916;-62
2022/04/30 06:19:01;;;;;;;;;;;20.40;39.00;;;;;;5051941;28;19915;-62
2022/04/30 06:21:26;;;;;;;;;;;20.40;39.20;;;;;;5053107;28;19963;-62
2022/04/30 06:23:51;;;;;;;;;;;20.40;39.20;;;;;;5053233;28;19908;-62
2022/04/30 06:26:17;;;;;;;;;;;20.40;39.10;;;;;;5052803;28;19908;-62
2022/04/30 06:28:42;;;;;;;;;;;20.40;39.10;;;;;;5052736;28;19909;-61
2022/04/30 06:31:08;;;;;;;;;;;20.40;39.00;;;;;;5053247;28;19913;-61
2022/04/30 06:33:33;;;;;;;;;;;20.40;39.00;;;;;;5052969;28;19920;-62
2022/04/30 06:35:59;;;;;;;;;;;20.40;39.00;;;;;;5053250;28;19919;-62
2022/04/30 06:38:24;;;;;;;;;;;20.50;39.00;;;;;;5060182;28;19998;-61
2022/04/30 06:40:50;;;;;;;;;;;20.50;39.00;;;;;;5071175;28;19916;-62
2022/04/30 06:43:15;;;;;;;;;;;20.40;39.10;;;;;;5072873;28;19908;-62
2022/04/30 06:45:41;;;;;;;;;;;20.40;39.10;;;;;;5072167;28;19927;-62
2022/04/30 06:48:06;;;;;;;;;;;20.40;39.70;;;;;;5072785;28;19908;-61
2022/04/30 06:50:32;;;;;;;;;;;20.40;39.00;;;;;;5072853;28;19977;-61
2022/04/30 06:58:26;;;;;;;;;;;20.40;39.00;;;;;;5072719;28;19915;-61
2022/04/30 07:03:23;;;;;;;;;;;20.40;39.10;;;;;;5074281;28;20065;-61
2022/04/30 07:05:50;;;;;;;;;;;20.50;39.70;;;;;;5051187;28;20074;-62
2022/04/30 07:08:15;;;;;;;;;;;20.50;39.10;;;;;;5071122;28;19916;-62
2022/04/30 07:10:41;;;;;;;;;;;20.40;39.00;;;;;;5071865;28;20357;-62
2022/04/30 07:13:06;;;;;;;;;;;20.50;39.00;;;;;;5072332;28;20391;-62
2022/04/30 07:15:31;;;;;;;;;;;20.40;39.00;;;;;;5071787;28;19920;-62
2022/04/30 07:17:57;;;;;;;;;;;20.40;39.10;;;;;;5072440;28;19909;-62
2022/04/30 07:20:22;;;;;;;;;;;20.40;39.00;;;;;;5072048;28;19998;-62
2022/04/30 07:22:48;;;;;;;;;;;20.40;39.00;;;;;;5071032;28;19912;-62
2022/04/30 07:25:14;;;;;;;;;;;20.40;39.00;;;;;;5071692;28;20312;-62
2022/04/30 07:27:39;;;;;;;;;;;20.40;38.90;;;;;;5072579;28;19912;-62
2022/04/30 07:30:06;;;;;;;;;;;20.40;38.90;;;;;;5071660;28;20372;-61
2022/04/30 07:32:31;;;;;;;;;;;20.40;39.00;;;;;;5071415;28;19916;-62
2022/04/30 07:34:56;;;;;;;;;;;20.40;39.00;;;;;;5064482;28;19916;-62
2022/04/30 07:37:22;;;;;;;;;;;20.50;39.00;;;;;;5052075;28;19959;-62
2022/04/30 07:39:47;;;;;;;;;;;20.50;39.00;;;;;;5070001;28;19916;-62
2022/04/30 07:42:13;;;;;;;;;;;20.50;39.00;;;;;;5072024;28;20371;-62
2022/04/30 07:44:39;;;;;;;;;;;20.40;39.00;;;;;;5071263;28;20348;-62
2022/04/30 07:47:04;;;;;;;;;;;20.50;39.00;;;;;;5072002;28;20376;-62
2022/04/30 07:49:31;;;;;;;;;;;20.50;39.70;;;;;;5071763;28;19916;-62
2022/04/30 07:51:56;;;;;;;;;;;20.40;39.00;;;;;;5071849;28;19912;-62
2022/04/30 07:54:22;;;;;;;;;;;20.40;39.00;;;;;;5071431;28;19915;-62
2022/04/30 07:56:54;;;;;;;;;;;20.40;39.00;;;;;;5070616;28;19915;-62
2022/04/30 07:59:20;;;;;;;;;;;20.40;39.00;;;;;;5070193;28;19912;-62
2022/04/30 08:01:46;;;;;;;;;;;20.40;39.00;;;;;;5071934;28;19908;-61
2022/04/30 08:04:11;;;;;;;;;;;20.40;39.10;;;;;;5070441;28;20038;-61
2022/04/30 08:06:37;;;;;;;;;;;20.40;39.10;;;;;;5071776;28;20057;-62
2022/04/30 08:09:02;;;;;;;;;;;20.40;39.10;;;;;;5071609;28;19908;-61
2022/04/30 08:11:28;;;;;;;;;;;20.40;39.30;;;;;;5071348;28;19912;-62
2022/04/30 08:13:53;;;;;;;;;;;20.40;39.20;;;;;;5071223;28;19924;-62
2022/04/30 08:16:19;;;;;;;;;;;20.40;39.30;;;;;;5071613;28;19966;-61
2022/04/30 08:18:44;;;;;;;;;;;20.40;39.20;;;;;;5071557;28;20388;-62
2022/04/30 08:21:10;;;;;;;;;;;20.40;39.20;;;;;;5071622;28;19923;-62
2022/04/30 08:23:36;;;;;;;;;;;20.40;39.20;;;;;;5068762;28;19999;-62
2022/04/30 08:26:01;;;;;;;;;;;20.40;39.30;;;;;;5066489;28;19909;-62
2022/04/30 08:28:27;;;;;;;;;;;20.40;39.20;;;;;;5051489;28;19916;-62
2022/04/30 08:30:53;;;;;;;;;;;20.40;39.10;;;;;;5050989;28;20276;-62
2022/04/30 08:33:18;;;;;;;;;;;20.50;39.10;;;;;;5051389;28;20361;-61
2022/04/30 08:35:43;;;;;;;;;;;20.50;39.10;;;;;;5051211;28;20329;-62
2022/04/30 08:38:09;;;;;;;;;;;20.40;39.00;;;;;;5056390;28;19913;-61
2022/04/30 08:40:35;;;;;;;;;;;20.50;39.10;;;;;;5070865;28;19913;-62
2022/04/30 08:43:07;;;;;;;;;;;20.50;39.10;;;;;;5071491;28;20341;-62
2022/04/30 08:45:33;;;;;;;;;;;20.50;39.10;;;;;;5073234;28;20701;-62
2022/04/30 08:47:58;;;;;;;;;;;20.50;39.20;;;;;;5073798;28;19916;-62
2022/04/30 08:50:23;;;;;;;;;;;20.40;39.30;;;;;;5073574;28;19912;-61
2022/04/30 08:52:51;;;;;;;;;;;20.40;39.30;;;;;;5075107;28;19912;-62
2022/04/30 08:55:16;;;;;;;;;;;20.40;39.40;;;;;;5074770;28;19909;-62
2022/04/30 08:57:42;;;;;;;;;;;20.40;39.50;;;;;;5074961;28;20399;-61
2022/04/30 09:00:08;;;;;;;;;;;20.30;39.60;;;;;;5074408;28;19934;-62
2022/04/30 09:02:33;;;;;;;;;;;20.20;39.80;;;;;;5075200;28;20003;-62
2022/04/30 09:04:59;;;;;;;;;;;20.20;39.90;;;;;;5054823;28;20257;-62
2022/04/30 09:07:25;;;;;;;;;;;20.20;40.00;;;;;;5054799;28;19966;-62
2022/04/30 09:09:57;;;;;;;;;;;20.20;40.00;;;;;;5073368;28;19915;-61
2022/04/30 09:12:23;;;;;;;;;;;20.20;40.00;;;;;;5074694;28;19913;-62
2022/04/30 09:14:49;;;;;;;;;;;20.20;40.10;;;;;;5074292;28;20019;-62
2022/04/30 09:17:15;;;;;;;;;;;20.20;40.10;;;;;;5074858;28;20033;-62
2022/04/30 09:19:47;;;;;;;;;;;20.20;40.10;;;;;;5074763;28;20310;-62
2022/04/30 09:22:14;;;;;;;;;;;20.30;40.20;;;;;;5074696;28;19909;-62
2022/04/30 09:24:48;;;;;;;;;;;20.30;40.30;;;;;;5074305;28;19912;-62
2022/04/30 09:27:14;;;;;;;;;;;20.20;40.20;;;;;;5074753;28;20264;-62
2022/04/30 09:29:39;;;;;;;;;;;20.20;40.30;;;;;;5073893;28;19922;-61
2022/04/30 09:32:05;;;;;;;;;;;20.30;40.40;;;;;;5074330;28;19912;-62
2022/04/30 09:37:42;;;;;;;;;;;20.20;40.50;;;;;;5054304;28;20338;-62
2022/04/30 09:40:14;;;;;;;;;;;20.20;40.50;;;;;;5052760;28;19909;-62
2022/04/30 09:42:43;;;;;;;;;;;20.20;40.50;;;;;;5054152;28;19917;-62
2022/04/30 09:45:08;;;;;;;;;;;20.20;40.50;;;;;;5052171;28;19921;-62
2022/04/30 09:47:34;;;;;;;;;;;20.20;40.60;;;;;;5053936;28;19966;-61
2022/04/30 09:55:31;;;;;;;;;;;20.30;40.70;;;;;;5052773;28;20281;-62
2022/04/30 09:58:00;;;;;;;;;;;20.30;40.80;;;;;;5053853;28;19909;-61
2022/04/30 10:00:26;;;;;;;;;;;20.20;40.80;;;;;;5052004;28;19948;-62
2022/04/30 10:02:52;;;;;;;;;;;20.20;40.70;;;;;;5053675;28;19998;-62
2022/04/30 10:05:18;;;;;;;;;;;20.30;40.80;;;;;;5053808;28;19908;-62
2022/04/30 10:07:43;;;;;;;;;;;20.30;40.70;;;;;;5053740;28;20276;-61
2022/04/30 10:10:29;;;;;;;;;;;20.30;40.70;;;;;;5072994;28;20010;-62
2022/04/30 10:12:56;;;;;;;;;;;20.30;40.70;;;;;;5073077;28;19943;-61
2022/04/30 10:15:28;;;;;;;;;;;20.30;40.80;;;;;;5071610;28;19951;-61
2022/04/30 10:17:54;;;;;;;;;;;20.30;40.80;;;;;;5072359;28;19912;-62
2022/04/30 10:20:28;;;;;;;;;;;20.30;40.80;;;;;;5073427;28;19962;-62
2022/04/30 10:22:58;;;;;;;;;;;20.30;40.80;;;;;;5080344;28;19908;-62
2022/04/30 10:25:36;;;;;;;;;;;20.30;40.80;;;;;;5056389;28;19915;-62
2022/04/30 10:28:04;;;;;;;;;;;20.30;40.90;;;;;;5053460;28;19909;-62
2022/04/30 10:30:30;;;;;;;;;;;20.30;40.80;;;;;;5052525;28;19955;-62
2022/04/30 10:32:59;;;;;;;;;;;20.30;40.90;;;;;;5053028;28;20285;-62
2022/04/30 10:35:29;;;;;;;;;;;20.30;40.90;;;;;;5052844;28;19920;-62
2022/04/30 10:38:04;;;;;;;;;;;20.30;40.90;;;;;;5055904;28;20388;-61
2022/04/30 10:40:36;;;;;;;;;;;20.30;41.00;;;;;;5072449;28;20007;-62
2022/04/30 10:43:01;;;;;;;;;;;20.30;40.90;;;;;;5072978;28;19909;-62
2022/04/30 10:45:28;;;;;;;;;;;20.40;40.90;;;;;;5072250;28;19927;-61
2022/04/30 10:47:54;;;;;;;;;;;20.30;40.90;;;;;;5071636;28;19947;-62
2022/04/30 10:50:19;;;;;;;;;;;20.30;40.90;;;;;;5071218;28;20388;-62
2022/04/30 10:52:48;;;;;;;;;;;20.40;41.00;;;;;;5072771;28;19959;-62
2022/04/30 10:55:14;;;;;;;;;;;20.40;41.00;;;;;;5072079;28;19916;-62
2022/04/30 10:57:40;;;;;;;;;;;20.40;41.20;;;;;;5071496;28;19916;-62
2022/04/30 11:00:06;;;;;;;;;;;20.40;41.10;;;;;;5071988;28;19908;-62
2022/04/30 11:02:31;;;;;;;;;;;20.40;41.10;;;;;;5072369;28;19913;-62
2022/04/30 11:04:57;;;;;;;;;;;20.40;41.00;;;;;;5052881;28;20388;-61
2022/04/30 11:07:23;;;;;;;;;;;20.40;41.00;;;;;;5051602;28;19909;-61
2022/04/30 11:09:48;;;;;;;;;;;20.40;41.00;;;;;;5069315;28;19915;-62
2022/04/30 11:12:14;;;;;;;;;;;20.50;41.10;;;;;;5072649;28;19927;-62
2022/04/30 11:14:40;;;;;;;;;;;20.50;41.00;;;;;;5071794;28;19919;-62
2022/04/30 11:17:06;;;;;;;;;;;20.50;41.10;;;;;;5071401;28;19908;-62
2022/04/30 11:19:31;;;;;;;;;;;20.50;41.10;;;;;;5072197;28;20257;-62
2022/04/30 11:21:58;;;;;;;;;;;20.50;41.00;;;;;;5070986;28;20290;-62
2022/04/30 11:24:27;;;;;;;;;;;20.50;41.00;;;;;;5071636;28;20364;-61
2022/04/30 11:26:53;;;;;;;;;;;20.50;40.90;;;;;;5072500;28;20102;-62
2022/04/30 11:29:18;;;;;;;;;;;20.50;41.00;;;;;;5071681;28;19908;-62
2022/04/30 11:31:44;;;;;;;;;;;20.50;40.90;;;;;;5071166;28;19927;-61
2022/04/30 11:34:10;;;;;;;;;;;20.50;41.00;;;;;;5071139;28;20422;-62
2022/04/30 11:36:42;;;;;;;;;;;20.50;40.90;;;;;;5051934;28;20072;-61
2022/04/30 11:39:11;;;;;;;;;;;20.50;40.90;;;;;;5065281;28;19908;-62
2022/04/30 11:41:37;;;;;;;;;;;20.50;41.00;;;;;;5072064;28;19944;-62
2022/04/30 11:44:03;;;;;;;;;;;20.50;41.00;;;;;;5069778;28;19943;-62
2022/04/30 11:46:28;;;;;;;;;;;20.40;40.90;;;;;;5071637;28;20348;-62
2022/04/30 11:48:53;;;;;;;;;;;20.40;40.90;;;;;;5070404;28;19942;-62
2022/04/30 11:51:19;;;;;;;;;;;20.40;41.00;;;;;;5071719;28;19916;-62
2022/04/30 11:53:45;;;;;;;;;;;20.40;41.00;;;;;;5072116;28;19973;-62
2022/04/30 11:56:10;;;;;;;;;;;20.40;41.00;;;;;;5071400;28;20381;-62
2022/04/30 11:58:42;;;;;;;;;;;20.40;41.10;;;;;;5071516;28;19915;-62
2022/04/30 12:01:20;;;;;;;;;;;20.40;41.00;;;;;;5070478;28;19954;-62
2022/04/30 12:03:46;;;;;;;;;;;20.50;41.10;;;;;;5071663;28;20292;-62
2022/04/30 12:06:11;;;;;;;;;;;20.50;41.10;;;;;;5070295;28;19914;-62
2022/04/30 12:08:37;;;;;;;;;;;20.50;41.10;;;;;;5071488;28;19913;-62
2022/04/30 12:11:02;;;;;;;;;;;20.50;41.00;;;;;;5071222;28;19912;-61
2022/04/30 12:13:27;;;;;;;;;;;20.50;40.90;;;;;;5070514;28;19908;-62
2022/04/30 12:16:03;;;;;;;;;;;20.50;40.90;;;;;;5071250;28;19915;-62
2022/04/30 12:26:55;;;;;;;;;;;20.60;40.90;;;;;;5055543;28;20350;-62
2022/04/30 12:29:21;;;;;;;;;;;20.60;40.80;;;;;;5054774;28;19909;-62
2022/04/30 12:31:53;;;;;;;;;;;20.70;40.90;;;;;;5055372;28;19965;-61
2022/04/30 12:34:18;;;;;;;;;;;20.60;40.80;;;;;;5055242;28;19962;-61
2022/04/30 12:36:57;;;;;;;;;;;20.60;40.90;;;;;;5055579;28;19917;-62
2022/04/30 12:39:23;;;;;;;;;;;20.50;40.90;;;;;;5069963;28;19936;-62
2022/04/30 12:41:52;;;;;;;;;;;20.50;40.90;;;;;;5075242;28;19912;-62
2022/04/30 12:44:17;;;;;;;;;;;20.50;41.00;;;;;;5073119;28;19955;-61
2022/04/30 12:46:46;;;;;;;;;;;20.60;41.00;;;;;;5075602;28;20329;-62
2022/04/30 12:49:12;;;;;;;;;;;20.60;41.00;;;;;;5074953;28;19983;-62
2022/04/30 12:51:38;;;;;;;;;;;20.60;40.90;;;;;;5074927;28;19913;-62
2022/04/30 12:54:04;;;;;;;;;;;20.60;40.90;;;;;;5074918;28;19913;-62
2022/04/30 12:56:30;;;;;;;;;;;20.60;40.90;;;;;;5074546;28;19912;-62
2022/04/30 12:58:56;;;;;;;;;;;20.70;40.90;;;;;;5074499;28;19916;-61
2022/04/30 13:01:21;;;;;;;;;;;20.70;40.80;;;;;;5074731;28;20303;-62
2022/04/30 13:03:48;;;;;;;;;;;20.70;40.70;;;;;;5069936;28;20253;-62
2022/04/30 13:06:14;;;;;;;;;;;20.70;40.70;;;;;;5054844;28;19908;-62
2022/04/30 13:14:08;;;;;;;;;;;20.80;40.60;;;;;;5073216;28;19958;-62
2022/04/30 13:16:33;;;;;;;;;;;20.80;40.60;;;;;;5074650;28;19908;-62
2022/04/30 13:18:58;;;;;;;;;;;20.80;41.20;;;;;;5074511;28;20380;-62
2022/04/30 13:21:24;;;;;;;;;;;20.80;40.50;;;;;;5074364;28;19938;-62
2022/04/30 13:23:49;;;;;;;;;;;20.80;40.40;;;;;;5074556;28;19963;-62
2022/04/30 13:26:15;;;;;;;;;;;20.80;40.40;;;;;;5073976;28;19915;-62
2022/04/30 13:28:40;;;;;;;;;;;20.80;40.30;;;;;;5072366;28;19966;-62
2022/04/30 13:31:06;;;;;;;;;;;20.80;40.40;;;;;;5073436;28;19995;-61
2022/04/30 13:33:31;;;;;;;;;;;20.80;40.40;;;;;;5074237;28;20353;-62
2022/04/30 13:35:57;;;;;;;;;;;20.90;40.60;;;;;;5058602;28;20323;-62
2022/04/30 13:38:22;;;;;;;;;;;20.90;40.40;;;;;;5060896;28;20303;-62
2022/04/30 13:40:48;;;;;;;;;;;20.90;40.30;;;;;;5072517;28;20356;-62
2022/04/30 13:43:15;;;;;;;;;;;20.90;40.40;;;;;;5074121;28;19909;-62
2022/04/30 13:45:40;;;;;;;;;;;20.90;40.40;;;;;;5073408;28;20356;-62
2022/04/30 13:48:06;;;;;;;;;;;20.90;40.30;;;;;;5072641;28;19908;-62
2022/04/30 13:50:32;;;;;;;;;;;21.00;40.30;;;;;;5073721;28;19912;-62
2022/04/30 13:52:58;;;;;;;;;;;21.00;40.20;;;;;;5074122;28;20284;-62
2022/04/30 13:55:25;;;;;;;;;;;21.10;40.20;;;;;;5073333;28;20348;-62
2022/04/30 13:57:50;;;;;;;;;;;21.10;40.00;;;;;;5072654;28;19908;-62
2022/04/30 14:00:16;;;;;;;;;;;21.10;40.00;;;;;;5073208;28;20218;-62
2022/04/30 14:02:42;;;;;;;;;;;21.10;39.90;;;;;;5073812;28;20325;-62
2022/04/30 14:05:07;;;;;;;;;;;21.10;39.90;;;;;;5072394;28;19919;-62
2022/04/30 14:07:33;;;;;;;;;;;21.10;39.90;;;;;;5073894;28;20327;-62
2022/04/30 14:09:58;;;;;;;;;;;21.10;39.90;;;;;;5073146;28;19958;-62
2022/04/30 14:12:24;;;;;;;;;;;21.20;39.90;;;;;;5073441;28;19962;-62
2022/04/30 14:14:58;;;;;;;;;;;21.20;39.80;;;;;;5071632;28;19920;-62
2022/04/30 14:20:10;;;;;;;;;;;21.20;40.00;;;;;;5073216;28;20275;-62
2022/04/30 14:22:36;;;;;;;;;;;21.30;39.80;;;;;;5072088;28;19916;-62
2022/04/30 14:25:01;;;;;;;;;;;21.20;39.80;;;;;;5059761;28;19970;-62
2022/04/30 14:27:27;;;;;;;;;;;21.20;39.70;;;;;;5053295;28;19909;-62
2022/04/30 14:29:52;;;;;;;;;;;21.30;39.90;;;;;;5052756;28;19953;-62
2022/04/30 14:32:21;;;;;;;;;;;21.30;39.80;;;;;;5053179;28;20365;-62
2022/04/30 14:34:46;;;;;;;;;;;21.30;39.80;;;;;;5052865;28;19908;-62
2022/04/30 14:37:12;;;;;;;;;;;21.40;39.70;;;;;;5051889;28;20440;-62
2022/04/30 14:39:40;;;;;;;;;;;21.40;39.70;;;;;;5068316;28;19913;-62
2022/04/30 14:42:07;;;;;;;;;;;21.40;39.70;;;;;;5072753;28;19917;-63
2022/04/30 14:44:33;;;;;;;;;;;21.30;39.70;;;;;;5072231;28;19924;-62
2022/04/30 14:46:58;;;;;;;;;;;21.40;39.70;;;;;;5072975;28;19915;-62
2022/04/30 14:49:23;;;;;;;;;;;21.40;39.70;;;;;;5071578;28;20341;-62
2022/04/30 14:51:49;;;;;;;;;;;21.40;39.60;;;;;;5071655;28;19916;-63
2022/04/30 14:54:15;;;;;;;;;;;21.40;39.60;;;;;;5072349;28;19917;-62
2022/04/30 14:56:43;;;;;;;;;;;21.40;39.50;;;;;;5072762;28;19916;-62
2022/04/30 14:59:09;;;;;;;;;;;21.40;39.50;;;;;;5070954;28;20037;-62
2022/04/30 15:01:35;;;;;;;;;;;21.50;39.60;;;;;;5071325;28;19970;-62
2022/04/30 15:04:00;;;;;;;;;;;21.50;39.60;;;;;;5051056;28;19908;-62
2022/04/30 15:06:26;;;;;;;;;;;21.50;39.60;;;;;;5052401;28;20365;-62